Time;durP1;ratioP1;P1;durP2;ratioP2;P2;SDS_P1;SDS_P2;PMS_P1;PMS_P2;Temp;Humidity;BMP_temperature;BMP_pressure;BME280_temperature;BME280_humidity;BME280_pressure;Samples;Min_cycle;Max_cycle;Signal;HPM_P1;HPM_P2
2023/05/20 00:00:58;;;;;;;2.15;1.13;;;9.40;99.90;;;;;;4992108;28;20057;-57
2023/05/20 00:03:24;;;;;;;2.10;1.52;;;9.40;99.90;;;;;;4992594;28;20057;-48
2023/05/20 00:05:49;;;;;;;2.08;1.17;;;9.40;99.90;;;;;;5007146;28;20109;-41
2023/05/20 00:08:16;;;;;;;1.30;1.05;;;9.40;99.90;;;;;;5004366;28;20025;-47
2023/05/20 00:10:42;;;;;;;4.35;1.25;;;9.50;99.90;;;;;;5011726;28;20037;-47
2023/05/20 00:13:08;;;;;;;3.70;1.90;;;9.50;99.90;;;;;;5011919;28;20018;-47
2023/05/20 00:15:34;;;;;;;2.03;1.20;;;9.40;99.90;;;;;;5011830;28;20026;-43
2023/05/20 00:18:00;;;;;;;3.92;1.95;;;9.50;99.90;;;;;;5011751;28;20392;-42
2023/05/20 00:20:26;;;;;;;1.88;0.85;;;9.50;99.90;;;;;;5011493;28;20486;-46
2023/05/20 00:22:52;;;;;;;5.47;1.80;;;9.40;99.90;;;;;;5011907;28;20022;-46
2023/05/20 00:25:18;;;;;;;2.55;1.00;;;9.50;99.90;;;;;;5011695;28;20600;-49
2023/05/20 00:27:43;;;;;;;2.97;1.67;;;9.40;99.90;;;;;;5011653;28;20389;-52
2023/05/20 00:30:09;;;;;;;1.25;1.00;;;9.50;99.90;;;;;;5011594;28;20033;-46
2023/05/20 00:32:35;;;;;;;1.02;0.93;;;9.50;99.90;;;;;;5011541;28;20022;-41
2023/05/20 00:35:02;;;;;;;1.50;1.23;;;9.50;99.90;;;;;;5011741;28;20540;-44
2023/05/20 00:37:28;;;;;;;2.63;1.38;;;9.50;99.90;;;;;;5010700;28;20370;-45
2023/05/20 00:39:54;;;;;;;1.08;0.80;;;9.50;99.90;;;;;;5011506;28;20073;-44
2023/05/20 00:42:24;;;;;;;2.63;1.65;;;9.50;99.90;;;;;;5011411;28;20072;-43
2023/05/20 00:44:50;;;;;;;1.67;1.40;;;9.50;99.90;;;;;;5010837;28;20258;-45
2023/05/20 00:47:17;;;;;;;1.45;1.02;;;9.50;99.90;;;;;;5011359;28;20584;-42
2023/05/20 00:49:48;;;;;;;3.83;1.17;;;9.40;99.90;;;;;;5011022;28;20041;-47
2023/05/20 00:52:16;;;;;;;5.10;2.08;;;9.50;99.90;;;;;;5010908;28;20029;-50
2023/05/20 00:54:42;;;;;;;2.90;1.73;;;9.50;99.90;;;;;;5011290;28;20022;-55
2023/05/20 00:57:08;;;;;;;4.57;1.65;;;9.40;99.90;;;;;;5011367;28;20550;-47
2023/05/20 00:59:37;;;;;;;2.22;1.77;;;9.40;99.90;;;;;;5011051;28;20080;-44
2023/05/20 01:02:04;;;;;;;6.57;2.40;;;9.30;99.90;;;;;;5011106;28;20695;-48
2023/05/20 01:04:30;;;;;;;2.70;1.58;;;9.30;99.90;;;;;;5010636;28;20259;-44
2023/05/20 01:06:57;;;;;;;2.15;1.58;;;9.20;99.90;;;;;;5010087;28;20029;-42
2023/05/20 01:09:26;;;;;;;1.98;1.10;;;9.30;99.90;;;;;;5011061;28;20022;-45
2023/05/20 01:12:18;;;;;;;1.10;1.00;;;9.30;99.90;;;;;;5010698;28;20485;-46
2023/05/20 01:14:50;;;;;;;3.55;1.90;;;9.30;99.90;;;;;;4959282;28;20065;-45
2023/05/20 01:17:19;;;;;;;10.63;1.67;;;9.30;99.90;;;;;;4990727;28;20466;-42
2023/05/20 01:19:47;;;;;;;1.90;1.33;;;9.40;99.90;;;;;;4991054;28;20026;-43
2023/05/20 01:22:14;;;;;;;1.92;1.17;;;9.40;99.90;;;;;;4990838;28;20397;-43
2023/05/20 01:24:47;;;;;;;1.95;1.58;;;9.40;99.90;;;;;;4991163;28;20109;-43
2023/05/20 01:27:13;;;;;;;2.13;1.30;;;9.40;99.90;;;;;;4991140;28;20031;-42
2023/05/20 01:29:39;;;;;;;9.23;1.23;;;9.40;99.90;;;;;;4991411;28;20035;-51
2023/05/20 01:32:09;;;;;;;3.60;1.85;;;9.40;99.90;;;;;;4991221;28;20045;-49
2023/05/20 01:34:36;;;;;;;2.05;1.40;;;9.50;99.90;;;;;;4991215;28;20058;-44
2023/05/20 01:37:04;;;;;;;2.92;1.58;;;9.50;99.90;;;;;;4990250;28;20100;-48
2023/05/20 01:39:30;;;;;;;4.70;1.73;;;9.50;99.90;;;;;;4991027;28;20470;-48
2023/05/20 01:41:57;;;;;;;3.60;1.58;;;9.50;99.90;;;;;;4990346;28;20046;-47
2023/05/20 01:44:22;;;;;;;3.50;1.55;;;9.50;99.90;;;;;;4991098;28;20375;-48
2023/05/20 01:46:49;;;;;;;3.60;1.65;;;9.50;99.90;;;;;;4991059;28;20143;-41
2023/05/20 01:49:15;;;;;;;5.55;2.50;;;9.50;99.90;;;;;;4990852;28;20109;-42
2023/05/20 01:51:40;;;;;;;1.25;1.13;;;9.50;99.90;;;;;;4990701;28;20152;-42
2023/05/20 01:54:06;;;;;;;3.35;2.00;;;9.50;99.90;;;;;;4990923;28;20015;-53
2023/05/20 01:56:33;;;;;;;7.10;1.75;;;9.50;99.90;;;;;;4993283;28;20572;-49
2023/05/20 01:58:59;;;;;;;5.25;1.63;;;9.50;99.90;;;;;;4994754;28;20037;-45
2023/05/20 02:01:25;;;;;;;2.20;1.42;;;9.50;99.90;;;;;;4994977;28;20031;-50
2023/05/20 02:03:50;;;;;;;5.72;2.33;;;9.50;99.90;;;;;;4994397;28;20027;-43
2023/05/20 02:06:16;;;;;;;2.25;1.67;;;9.50;99.90;;;;;;4994773;28;20110;-47
2023/05/20 02:08:41;;;;;;;2.33;1.30;;;9.50;99.90;;;;;;4994883;28;20050;-49
2023/05/20 02:11:07;;;;;;;2.67;1.63;;;9.50;99.90;;;;;;4994251;28;20427;-50
2023/05/20 02:13:33;;;;;;;5.13;1.60;;;9.50;99.90;;;;;;4994430;28;20022;-47
2023/05/20 02:15:58;;;;;;;7.57;2.92;;;9.50;99.90;;;;;;4994328;28;20505;-43
2023/05/20 02:18:25;;;;;;;2.30;2.08;;;9.40;99.90;;;;;;4994313;28;20026;-50
2023/05/20 02:20:51;;;;;;;5.75;2.70;;;9.40;99.90;;;;;;4994460;28;20037;-45
2023/05/20 02:23:17;;;;;;;7.60;1.50;;;9.40;99.90;;;;;;5001305;28;20029;-55
2023/05/20 02:25:43;;;;;;;1.98;1.27;;;9.40;99.90;;;;;;4993793;28;20022;-53
2023/05/20 02:28:09;;;;;;;6.15;1.83;;;9.40;99.90;;;;;;4994178;28;20023;-45
2023/05/20 02:30:39;;;;;;;5.45;1.98;;;9.30;99.90;;;;;;4993765;28;20382;-51
2023/05/20 02:33:05;;;;;;;;;;;9.30;99.90;;;;;;4994300;28;20500;-53
2023/05/20 02:35:31;;;;;;;3.20;1.73;;;9.30;99.90;;;;;;4994029;28;19910;-57
2023/05/20 02:37:57;;;;;;;3.53;2.45;;;9.30;99.90;;;;;;4993862;28;20142;-57
2023/05/20 02:40:22;;;;;;;9.45;2.15;;;9.20;99.90;;;;;;4993776;28;20026;-52
2023/05/20 02:42:48;;;;;;;6.22;1.90;;;9.30;99.90;;;;;;4993045;28;20046;-44
2023/05/20 02:45:13;;;;;;;6.30;2.08;;;9.20;99.90;;;;;;4992836;28;20037;-50
2023/05/20 02:47:39;;;;;;;4.80;1.90;;;9.30;99.90;;;;;;4992882;28;20030;-50
2023/05/20 02:50:05;;;;;;;3.40;2.78;;;9.30;99.90;;;;;;4992447;28;20030;-46
2023/05/20 02:52:31;;;;;;;4.40;1.67;;;9.30;99.90;;;;;;4992411;28;20085;-46
2023/05/20 02:54:57;;;;;;;5.78;1.83;;;9.30;99.90;;;;;;4992345;28;20501;-53
2023/05/20 02:57:22;;;;;;;6.50;2.90;;;9.20;99.90;;;;;;4992882;28;20057;-49
2023/05/20 02:59:48;;;;;;;5.70;2.67;;;9.30;99.90;;;;;;4992642;28;20497;-47
2023/05/20 03:02:14;;;;;;;12.18;3.13;;;9.30;99.90;;;;;;4992437;28;20485;-42
2023/05/20 03:04:40;;;;;;;3.60;2.22;;;9.20;99.90;;;;;;4992593;28;20022;-43
2023/05/20 03:07:09;;;;;;;3.47;1.67;;;9.30;99.90;;;;;;4992099;28;20038;-42
2023/05/20 03:09:34;;;;;;;6.95;3.33;;;9.20;99.90;;;;;;4992329;28;20033;-43
2023/05/20 03:12:00;;;;;;;6.47;2.97;;;9.20;99.90;;;;;;4990785;28;20022;-43
2023/05/20 03:14:26;;;;;;;8.77;2.17;;;9.20;99.90;;;;;;4992470;28;20026;-49
2023/05/20 03:16:54;;;;;;;3.65;2.05;;;9.20;99.90;;;;;;4992455;28;20470;-49
2023/05/20 03:19:20;;;;;;;3.55;1.95;;;9.30;99.90;;;;;;4991844;28;20026;-42
2023/05/20 03:21:46;;;;;;;2.20;1.45;;;9.30;99.90;;;;;;4991411;28;20084;-43
2023/05/20 03:24:11;;;;;;;2.75;2.47;;;9.30;99.90;;;;;;4992352;28;20034;-46
2023/05/20 03:26:42;;;;;;;2.83;1.83;;;9.20;99.90;;;;;;4992179;28;20441;-43
2023/05/20 03:29:08;;;;;;;4.47;2.58;;;9.20;99.90;;;;;;4992339;28;20036;-42
2023/05/20 03:31:34;;;;;;;6.40;2.58;;;9.30;99.90;;;;;;4991849;28;20034;-46
2023/05/20 03:34:00;;;;;;;5.78;1.83;;;9.20;99.90;;;;;;4998539;28;20030;-45
2023/05/20 03:36:25;;;;;;;4.35;2.08;;;9.20;99.90;;;;;;4991661;28;20086;-44
2023/05/20 03:38:51;;;;;;;3.33;2.22;;;9.20;99.90;;;;;;4991941;28;20030;-42
2023/05/20 03:41:16;;;;;;;3.58;2.35;;;9.20;99.90;;;;;;4991757;28;20034;-42
2023/05/20 03:43:42;;;;;;;7.03;1.92;;;9.20;99.90;;;;;;4950753;28;1215760;-46
2023/05/20 03:46:08;;;;;;;14.32;3.60;;;9.30;99.90;;;;;;4992868;28;20106;-44
2023/05/20 03:48:33;;;;;;;2.53;2.05;;;9.30;99.90;;;;;;4992528;28;20065;-44
2023/05/20 03:51:00;;;;;;;10.32;3.05;;;9.30;99.90;;;;;;4992051;28;20042;-42
2023/05/20 03:53:26;;;;;;;1.88;1.60;;;9.30;99.90;;;;;;4992506;28;20385;-44
2023/05/20 03:55:52;;;;;;;3.00;2.08;;;9.30;99.90;;;;;;4992569;28;20097;-52
2023/05/20 03:58:19;;;;;;;2.65;1.92;;;9.40;99.90;;;;;;4992512;28;20382;-44
2023/05/20 04:00:46;;;;;;;5.07;2.83;;;9.40;99.90;;;;;;4992120;28;20030;-42
2023/05/20 04:03:12;;;;;;;3.60;2.72;;;9.40;99.90;;;;;;4992148;28;20072;-45
2023/05/20 04:05:37;;;;;;;4.53;1.95;;;9.40;99.90;;;;;;4992375;28;20030;-44
2023/05/20 04:08:05;;;;;;;7.30;2.53;;;9.50;99.90;;;;;;4992132;28;20122;-46
2023/05/20 04:10:33;;;;;;;9.68;3.20;;;9.50;99.90;;;;;;4992141;28;20022;-47
2023/05/20 04:12:59;;;;;;;3.33;2.92;;;9.60;99.90;;;;;;4991993;28;20031;-42
2023/05/20 04:15:25;;;;;;;5.13;3.08;;;9.60;99.90;;;;;;4992209;28;20019;-45
2023/05/20 04:17:51;;;;;;;6.03;2.45;;;9.60;99.90;;;;;;4992304;28;20034;-49
2023/05/20 04:20:17;;;;;;;7.30;3.13;;;9.70;99.90;;;;;;4991464;28;20053;-44
2023/05/20 04:22:44;;;;;;;3.85;2.00;;;9.70;99.90;;;;;;4992101;28;20505;-46
2023/05/20 04:25:10;;;;;;;7.90;3.03;;;9.70;99.90;;;;;;4992238;28;20018;-46
2023/05/20 04:27:38;;;;;;;6.40;2.72;;;9.70;99.90;;;;;;4992603;28;20026;-47
2023/05/20 04:30:05;;;;;;;3.08;2.00;;;9.80;99.90;;;;;;4992130;28;20085;-46
2023/05/20 04:32:33;;;;;;;4.38;2.55;;;9.80;99.90;;;;;;4991911;28;20359;-53
2023/05/20 04:35:00;;;;;;;3.22;2.10;;;9.90;99.90;;;;;;4991762;28;20026;-43
2023/05/20 04:37:26;;;;;;;9.27;2.22;;;9.90;99.90;;;;;;4992179;28;20073;-49
2023/05/20 04:39:52;;;;;;;2.03;1.60;;;9.90;99.90;;;;;;4991967;28;20018;-46
2023/05/20 04:42:20;;;;;;;4.80;3.03;;;9.90;99.90;;;;;;4991809;28;20052;-42
2023/05/20 04:44:46;;;;;;;2.30;1.90;;;9.90;99.90;;;;;;4991735;28;20034;-42
2023/05/20 04:47:12;;;;;;;6.20;2.70;;;10.00;99.90;;;;;;4991305;28;20038;-42
2023/05/20 04:49:38;;;;;;;7.15;2.50;;;10.00;99.90;;;;;;4991131;28;20022;-44
2023/05/20 04:52:04;;;;;;;4.47;2.05;;;10.00;99.90;;;;;;4990496;28;20758;-47
2023/05/20 04:54:31;;;;;;;4.68;2.90;;;10.00;99.90;;;;;;4990831;28;20064;-42
2023/05/20 04:56:57;;;;;;;4.57;2.25;;;10.10;99.90;;;;;;4991321;28;20042;-48
2023/05/20 04:59:23;;;;;;;9.25;2.58;;;10.10;99.90;;;;;;4991672;28;20040;-45
2023/05/20 05:01:49;;;;;;;3.75;2.22;;;10.10;99.90;;;;;;4990798;28;20038;-51
2023/05/20 05:04:14;;;;;;;4.95;2.20;;;10.20;99.90;;;;;;4991278;28;20054;-42
2023/05/20 05:06:40;;;;;;;6.03;3.38;;;10.20;99.90;;;;;;4991091;28;20030;-48
2023/05/20 05:09:06;;;;;;;3.92;2.30;;;10.20;99.90;;;;;;4991296;28;20025;-46
2023/05/20 05:11:32;;;;;;;3.53;2.20;;;10.20;99.90;;;;;;4991657;28;20030;-45
2023/05/20 05:13:58;;;;;;;4.38;2.72;;;10.30;99.90;;;;;;4990720;28;20390;-48
2023/05/20 05:16:24;;;;;;;4.85;2.72;;;10.30;99.90;;;;;;4991132;28;20382;-51
2023/05/20 05:18:49;;;;;;;4.50;3.20;;;10.30;99.90;;;;;;4991569;28;20028;-55
2023/05/20 05:21:15;;;;;;;8.40;2.83;;;10.30;99.90;;;;;;4990985;28;20026;-48
2023/05/20 05:23:44;;;;;;;4.93;2.72;;;10.30;99.90;;;;;;4991491;28;20026;-48
2023/05/20 05:26:09;;;;;;;2.95;2.40;;;10.40;99.90;;;;;;4991237;28;20026;-42
2023/05/20 05:28:35;;;;;;;4.60;2.85;;;10.40;99.90;;;;;;4990994;28;20037;-43
2023/05/20 05:31:04;;;;;;;8.18;2.90;;;10.40;99.90;;;;;;4990436;28;20038;-46
2023/05/20 05:33:29;;;;;;;4.65;3.25;;;10.40;99.90;;;;;;4991099;28;20508;-49
2023/05/20 05:35:57;;;;;;;4.82;3.08;;;10.50;99.90;;;;;;4991431;28;20117;-43
2023/05/20 05:38:24;;;;;;;6.05;3.10;;;10.60;99.90;;;;;;4990672;28;20473;-45
2023/05/20 05:40:49;;;;;;;4.93;2.75;;;10.70;99.90;;;;;;4990806;28;20034;-42
2023/05/20 05:43:15;;;;;;;3.45;2.55;;;10.90;99.90;;;;;;4990914;28;20050;-41
2023/05/20 05:45:42;;;;;;;5.10;3.42;;;11.00;99.90;;;;;;4991027;28;20556;-44
2023/05/20 05:48:07;;;;;;;4.70;2.47;;;11.00;99.90;;;;;;4991165;28;20030;-46
2023/05/20 05:50:33;;;;;;;9.93;2.78;;;11.20;99.90;;;;;;4991176;28;20030;-50
2023/05/20 05:52:58;;;;;;;7.72;3.45;;;11.40;99.90;;;;;;4991181;28;20486;-45
2023/05/20 05:55:24;;;;;;;8.85;3.60;;;11.70;99.90;;;;;;4993750;28;20022;-44
2023/05/20 05:57:50;;;;;;;9.70;3.90;;;11.80;99.90;;;;;;5000681;28;20065;-46
2023/05/20 06:00:16;;;;;;;5.90;4.15;;;11.90;99.90;;;;;;4990652;28;20026;-47
2023/05/20 06:02:42;;;;;;;5.30;3.70;;;12.00;99.90;;;;;;4990734;28;20038;-54
2023/05/20 06:05:08;;;;;;;4.88;2.17;;;12.10;99.90;;;;;;4991414;28;20033;-50
2023/05/20 06:07:34;;;;;;;5.32;2.92;;;12.20;99.90;;;;;;4990058;28;20027;-43
2023/05/20 06:09:59;;;;;;;8.85;3.08;;;12.40;99.90;;;;;;4990444;28;20025;-42
2023/05/20 06:12:25;;;;;;;6.80;3.17;;;12.50;99.90;;;;;;4991944;28;20030;-40
2023/05/20 06:14:51;;;;;;;4.97;2.50;;;12.50;99.90;;;;;;4991892;28;20469;-41
2023/05/20 06:17:16;;;;;;;3.03;1.98;;;12.50;99.90;;;;;;4990639;28;20092;-41
2023/05/20 06:19:42;;;;;;;7.32;3.13;;;12.50;99.90;;;;;;4994177;28;20033;-44
2023/05/20 06:22:07;;;;;;;3.03;2.28;;;12.70;99.90;;;;;;4995987;28;20097;-45
2023/05/20 06:24:33;;;;;;;6.07;2.72;;;13.00;99.90;;;;;;5000866;28;20041;-42
2023/05/20 06:26:59;;;;;;;3.15;2.28;;;13.40;99.90;;;;;;4998097;28;20484;-50
2023/05/20 06:29:25;;;;;;;4.72;3.25;;;13.60;99.90;;;;;;4990378;28;20386;-53
2023/05/20 06:31:50;;;;;;;5.25;2.63;;;13.90;99.90;;;;;;4998559;28;20049;-49
2023/05/20 06:34:16;;;;;;;6.78;2.63;;;14.60;99.90;;;;;;5000554;28;20389;-45
2023/05/20 06:36:41;;;;;;;10.43;3.33;;;15.10;99.90;;;;;;4989786;28;20409;-48
2023/05/20 06:39:11;;;;;;;9.15;3.08;;;15.30;99.90;;;;;;4985267;28;20026;-43
2023/05/20 06:41:38;;;;;;;7.85;2.10;;;15.30;99.90;;;;;;4989228;28;20030;-48
2023/05/20 06:44:04;;;;;;;9.43;3.38;;;15.00;99.90;;;;;;4996622;28;20024;-43
2023/05/20 06:46:29;;;;;;;12.23;2.33;;;14.90;99.90;;;;;;4999071;28;20116;-43
2023/05/20 06:48:55;;;;;;;4.90;3.05;;;15.10;99.90;;;;;;5003871;28;20056;-49
2023/05/20 06:51:21;;;;;;;11.48;2.70;;;15.70;99.90;;;;;;5001045;28;20075;-47
2023/05/20 06:53:46;;;;;;;5.35;2.33;;;15.90;99.90;;;;;;4993155;28;20030;-45
2023/05/20 06:56:12;;;;;;;15.77;2.75;;;16.30;99.90;;;;;;4999906;28;20037;-41
2023/05/20 06:58:38;;;;;;;6.18;2.72;;;16.70;99.90;;;;;;4998712;28;20026;-46
2023/05/20 07:01:03;;;;;;;4.10;1.63;;;17.50;99.90;;;;;;5003809;28;20053;-43
2023/05/20 07:03:29;;;;;;;8.82;2.83;;;17.80;99.90;;;;;;4996205;28;20500;-48
2023/05/20 07:05:54;;;;;;;7.43;2.70;;;18.00;99.90;;;;;;4996276;28;20057;-41
2023/05/20 07:08:20;;;;;;;8.30;2.85;;;18.10;99.90;;;;;;4993643;28;20482;-44
2023/05/20 07:10:46;;;;;;;4.15;2.30;;;18.30;99.90;;;;;;4993266;28;20046;-49
2023/05/20 07:13:11;;;;;;;8.52;2.22;;;18.60;99.90;;;;;;4990937;28;20050;-46
2023/05/20 07:15:37;;;;;;;4.50;2.22;;;19.00;99.90;;;;;;4989802;28;20662;-41
2023/05/20 07:18:02;;;;;;;7.93;1.90;;;18.90;99.90;;;;;;4992361;28;20045;-44
2023/05/20 07:20:28;;;;;;;4.63;2.15;;;19.30;99.80;;;;;;4993056;28;20026;-47
2023/05/20 07:22:54;;;;;;;4.90;2.35;;;19.20;98.80;;;;;;4991896;28;20109;-44
2023/05/20 07:25:20;;;;;;;6.18;2.13;;;19.00;97.20;;;;;;4990426;28;20030;-49
2023/05/20 07:27:45;;;;;;;2.72;1.58;;;19.20;97.70;;;;;;4991233;28;20106;-40
2023/05/20 07:30:11;;;;;;;4.82;1.63;;;19.40;98.20;;;;;;4990892;28;20469;-42
2023/05/20 07:32:37;;;;;;;6.13;1.65;;;19.90;97.20;;;;;;4991097;28;20037;-50
2023/05/20 07:35:03;;;;;;;3.72;1.90;;;20.10;96.60;;;;;;4991048;28;20061;-46
2023/05/20 07:37:28;;;;;;;2.75;1.35;;;20.20;93.00;;;;;;4991590;28;20049;-49
2023/05/20 07:39:54;;;;;;;6.03;1.77;;;20.20;95.50;;;;;;4992834;28;20033;-52
2023/05/20 07:42:20;;;;;;;2.03;1.27;;;20.50;93.70;;;;;;4992519;28;20078;-54
2023/05/20 07:44:45;;;;;;;2.97;1.20;;;20.60;93.70;;;;;;4992961;28;20030;-43
2023/05/20 07:47:12;;;;;;;3.38;1.70;;;20.60;93.80;;;;;;4992867;28;20109;-53
2023/05/20 07:49:38;;;;;;;5.07;1.50;;;20.80;91.80;;;;;;4992926;28;20030;-48
2023/05/20 07:52:04;;;;;;;3.35;1.20;;;21.00;91.10;;;;;;4992804;28;20441;-53
2023/05/20 07:54:30;;;;;;;3.67;1.40;;;21.50;93.10;;;;;;4992058;28;20085;-43
2023/05/20 07:56:55;;;;;;;3.35;1.00;;;22.00;90.80;;;;;;4992661;28;20113;-48
2023/05/20 07:59:21;;;;;;;1.98;1.17;;;22.10;89.10;;;;;;4992805;28;20129;-53
2023/05/20 08:01:47;;;;;;;1.80;1.00;;;22.30;85.40;;;;;;4992537;28;20034;-43
2023/05/20 08:04:12;;;;;;;3.17;1.52;;;22.70;85.80;;;;;;4992830;28;20027;-45
2023/05/20 08:06:38;;;;;;;1.80;1.15;;;22.70;83.20;;;;;;4992570;28;20109;-45
2023/05/20 08:09:04;;;;;;;2.53;1.10;;;22.90;85.60;;;;;;4992476;28;20018;-40
2023/05/20 08:11:29;;;;;;;1.67;0.90;;;23.30;84.60;;;;;;4992348;28;20041;-41
2023/05/20 08:13:55;;;;;;;2.03;1.15;;;23.30;76.90;;;;;;4992521;28;20026;-41
2023/05/20 08:16:21;;;;;;;2.88;0.80;;;23.40;83.40;;;;;;4992375;28;20022;-40
2023/05/20 08:18:47;;;;;;;2.55;0.93;;;23.70;78.10;;;;;;4992529;28;20022;-41
2023/05/20 08:21:12;;;;;;;1.88;1.08;;;23.90;79.00;;;;;;4992149;28;20363;-41
2023/05/20 08:23:38;;;;;;;3.05;1.00;;;24.00;79.50;;;;;;4992374;28;20382;-52
2023/05/20 08:26:04;;;;;;;1.98;1.00;;;24.20;78.10;;;;;;4991834;28;20034;-47
2023/05/20 08:28:30;;;;;;;2.15;1.23;;;24.00;72.30;;;;;;4992184;28;20108;-41
2023/05/20 08:30:59;;;;;;;3.88;1.35;;;23.60;75.60;;;;;;4992218;28;20033;-42
2023/05/20 08:33:25;;;;;;;;;;;24.00;79.70;;;;;;4992429;28;20092;-47
2023/05/20 08:35:51;;;;;;;2.38;1.10;;;24.10;72.80;;;;;;4992017;28;19910;-43
2023/05/20 08:38:16;;;;;;;2.50;1.02;;;24.40;73.90;;;;;;5006868;28;20038;-51
2023/05/20 08:40:42;;;;;;;1.63;0.85;;;24.60;78.40;;;;;;4991825;28;20030;-52
2023/05/20 08:43:08;;;;;;;2.65;1.10;;;24.70;72.20;;;;;;4991586;28;20138;-56
2023/05/20 08:45:37;;;;;;;2.65;1.02;;;24.50;71.70;;;;;;4991814;28;20066;-48
2023/05/20 08:48:06;;;;;;;;;;;24.60;73.90;;;;;;4992287;28;20437;-43
2023/05/20 08:50:32;;;;;;;;;;;24.40;69.10;;;;;;4992207;28;19906;-43
2023/05/20 08:52:58;;;;;;;1.95;1.05;;;24.30;68.40;;;;;;4990515;28;20375;-50
2023/05/20 08:55:25;;;;;;;1.90;0.80;;;24.40;70.20;;;;;;4991690;28;20101;-42
2023/05/20 08:57:54;;;;;;;1.25;0.80;;;24.50;69.30;;;;;;4991641;28;20536;-41
2023/05/20 09:00:22;;;;;;;;;;;24.70;71.80;;;;;;4992172;28;20509;-43
2023/05/20 09:02:48;;;;;;;5.35;0.80;;;25.10;72.50;;;;;;4991496;28;20016;-50
2023/05/20 09:05:14;;;;;;;1.67;0.90;;;25.60;73.60;;;;;;4991236;28;20076;-42
2023/05/20 09:07:42;;;;;;;1.58;0.95;;;25.90;71.90;;;;;;4991532;28;20023;-46
2023/05/20 09:10:08;;;;;;;2.10;1.13;;;26.00;69.20;;;;;;4991601;28;20034;-47
2023/05/20 09:12:34;;;;;;;4.43;1.85;;;25.70;68.30;;;;;;4991531;28;20026;-44
2023/05/20 09:15:00;;;;;;;1.60;0.90;;;25.40;65.40;;;;;;4991449;28;20026;-41
2023/05/20 09:17:26;;;;;;;0.88;0.60;;;25.70;71.70;;;;;;4991266;28;20027;-53
2023/05/20 09:19:52;;;;;;;1.67;0.90;;;25.70;66.70;;;;;;4991488;28;20030;-44
2023/05/20 09:22:25;;;;;;;2.17;1.00;;;25.80;67.50;;;;;;4990044;28;20402;-45
2023/05/20 09:24:51;;;;;;;1.85;1.00;;;26.00;68.90;;;;;;4991533;28;20054;-48
2023/05/20 09:27:18;;;;;;;2.60;1.15;;;25.90;65.10;;;;;;4991335;28;20065;-44
2023/05/20 09:29:49;;;;;;;1.75;1.00;;;26.10;71.30;;;;;;4991140;28;20034;-40
2023/05/20 09:32:15;;;;;;;1.98;1.10;;;26.30;66.20;;;;;;4991122;28;20065;-51
2023/05/20 09:34:42;;;;;;;1.27;0.68;;;26.00;65.30;;;;;;4990968;28;20541;-44
2023/05/20 09:37:08;;;;;;;1.55;1.02;;;25.80;64.10;;;;;;4991521;28;20077;-51
2023/05/20 09:39:47;;;;;;;1.35;0.90;;;25.70;63.60;;;;;;4991043;28;20030;-44
2023/05/20 09:42:21;;;;;;;1.85;1.10;;;25.60;64.50;;;;;;4991044;28;20053;-51
2023/05/20 09:44:49;;;;;;;1.20;0.77;;;25.00;65.20;;;;;;4991151;28;20034;-57
2023/05/20 09:47:16;;;;;;;3.87;1.27;;;25.90;68.90;;;;;;4991176;28;20069;-45
2023/05/20 09:49:43;;;;;;;1.88;0.90;;;26.50;68.70;;;;;;4990975;28;20755;-43
2023/05/20 09:52:09;;;;;;;1.30;0.95;;;26.80;68.00;;;;;;4990968;28;20053;-41
2023/05/20 09:54:35;;;;;;;1.33;0.80;;;27.40;67.60;;;;;;4991107;28;20034;-41
2023/05/20 09:57:03;;;;;;;2.45;1.00;;;27.90;66.50;;;;;;4990961;28;20030;-41
2023/05/20 09:59:31;;;;;;;1.77;0.80;;;27.70;60.60;;;;;;4991107;28;20022;-43
2023/05/20 10:01:57;;;;;;;3.67;1.30;;;27.30;59.40;;;;;;4991123;28;20034;-51
2023/05/20 10:04:25;;;;;;;1.67;0.90;;;27.60;63.10;;;;;;4991175;28;20045;-53
2023/05/20 10:07:18;;;;;;;1.00;0.80;;;27.60;64.60;;;;;;4990738;28;20023;-46
2023/05/20 10:09:59;;;;;;;1.50;0.85;;;27.70;63.60;;;;;;4990843;28;20129;-49
2023/05/20 10:12:44;;;;;;;1.27;0.80;;;27.70;62.50;;;;;;4990697;28;20069;-50
2023/05/20 10:15:19;;;;;;;1.30;0.93;;;27.40;61.50;;;;;;4985934;28;20087;-43
2023/05/20 10:18:03;;;;;;;2.17;1.10;;;26.80;60.50;;;;;;4998724;28;20113;-53
2023/05/20 10:20:29;;;;;;;1.63;0.95;;;26.80;60.00;;;;;;4997125;28;20076;-48
2023/05/20 10:22:56;;;;;;;2.13;1.02;;;26.20;59.40;;;;;;4995555;28;20034;-52
2023/05/20 10:25:28;;;;;;;1.45;1.10;;;25.90;62.00;;;;;;5007190;28;20109;-52
2023/05/20 10:28:06;;;;;;;1.42;0.98;;;26.30;66.30;;;;;;5002956;28;20025;-47
2023/05/20 10:30:32;;;;;;;2.88;1.00;;;26.20;62.30;;;;;;5005680;28;20091;-50
2023/05/20 10:33:04;;;;;;;1.92;0.80;;;26.10;60.80;;;;;;5008666;28;20097;-41
2023/05/20 10:35:31;;;;;;;1.60;1.08;;;25.90;61.70;;;;;;5004429;28;20018;-49
2023/05/20 10:38:11;;;;;;;1.30;0.88;;;25.90;62.10;;;;;;5008240;28;20026;-47
2023/05/20 10:40:36;;;;;;;0.73;0.65;;;26.00;65.70;;;;;;5001817;28;20077;-43
2023/05/20 10:43:13;;;;;;;2.20;0.80;;;26.50;63.20;;;;;;4993817;28;20406;-41
2023/05/20 10:45:54;;;;;;;1.27;0.75;;;26.60;62.80;;;;;;4995673;28;20097;-41
2023/05/20 10:48:27;;;;;;;2.72;0.85;;;26.70;63.60;;;;;;4997706;28;20033;-49
2023/05/20 10:51:03;;;;;;;2.38;0.65;;;26.70;60.60;;;;;;4993889;28;20027;-42
2023/05/20 10:53:37;;;;;;;4.15;0.60;;;26.50;61.30;;;;;;4993828;28;20027;-46
2023/05/20 10:56:03;;;;;;;1.15;0.65;;;26.20;59.30;;;;;;5000502;28;20029;-44
2023/05/20 10:58:36;;;;;;;1.17;0.70;;;25.80;61.50;;;;;;4998445;28;20038;-45
2023/05/20 11:01:02;;;;;;;1.55;0.55;;;25.80;60.00;;;;;;4997976;28;20027;-44
2023/05/20 11:03:28;;;;;;;1.33;0.52;;;25.90;61.20;;;;;;5002868;28;20026;-49
2023/05/20 11:05:54;;;;;;;2.03;0.80;;;26.30;60.60;;;;;;4994712;28;20081;-43
2023/05/20 11:08:20;;;;;;;1.52;0.80;;;26.00;56.30;;;;;;5003528;28;20030;-44
2023/05/20 11:10:46;;;;;;;0.98;0.70;;;25.70;60.60;;;;;;5020191;28;20037;-42
2023/05/20 11:13:14;;;;;;;1.13;0.57;;;26.10;58.70;;;;;;4998512;28;20021;-41
2023/05/20 11:15:40;;;;;;;0.95;0.60;;;26.10;60.00;;;;;;4997253;28;20045;-42
2023/05/20 11:18:06;;;;;;;0.95;0.68;;;26.10;58.80;;;;;;4992913;28;20019;-43
2023/05/20 11:20:33;;;;;;;0.85;0.57;;;26.00;58.60;;;;;;4993699;28;20110;-45
2023/05/20 11:23:00;;;;;;;1.05;0.40;;;25.90;56.90;;;;;;5000114;28;20497;-45
2023/05/20 11:25:27;;;;;;;0.50;0.45;;;25.50;59.20;;;;;;5008980;28;20075;-40
2023/05/20 11:27:53;;;;;;;0.90;0.70;;;25.00;57.80;;;;;;5007947;28;20061;-40
2023/05/20 11:30:19;;;;;;;0.95;0.68;;;24.70;62.80;;;;;;4998126;28;20465;-41
2023/05/20 11:32:58;;;;;;;1.05;0.68;;;24.10;58.40;;;;;;4990224;28;20027;-40
2023/05/20 11:35:25;;;;;;;2.65;0.63;;;24.30;59.80;;;;;;4993352;28;20030;-41
2023/05/20 11:38:09;;;;;;;2.08;0.65;;;24.60;60.90;;;;;;4997588;28;20026;-43
2023/05/20 11:40:35;;;;;;;3.10;0.63;;;24.70;58.20;;;;;;4991867;28;20022;-49
2023/05/20 11:43:02;;;;;;;2.30;0.50;;;24.50;58.10;;;;;;4995780;28;20129;-47
2023/05/20 11:45:52;;;;;;;1.17;0.80;;;24.50;58.80;;;;;;4999388;28;20050;-47
2023/05/20 11:48:18;;;;;;;1.65;0.82;;;24.60;56.70;;;;;;4977841;28;20061;-44
2023/05/20 11:50:45;;;;;;;1.25;0.70;;;24.60;58.10;;;;;;4991295;28;20047;-47
2023/05/20 11:53:15;;;;;;;0.52;0.40;;;24.80;59.60;;;;;;4990993;28;20086;-40
2023/05/20 11:55:51;;;;;;;3.78;0.50;;;24.60;60.10;;;;;;4998030;28;20824;-46
2023/05/20 11:58:22;;;;;;;0.80;0.68;;;24.50;59.20;;;;;;4992404;28;20165;-42
2023/05/20 12:00:48;;;;;;;0.50;0.35;;;24.20;57.70;;;;;;4992318;28;20019;-45
2023/05/20 12:03:15;;;;;;;0.60;0.50;;;23.90;56.10;;;;;;4993983;28;20101;-51
2023/05/20 12:05:41;;;;;;;1.40;0.63;;;23.30;56.10;;;;;;4987846;28;20035;-45
2023/05/20 12:08:07;;;;;;;1.88;0.70;;;22.90;57.50;;;;;;5000269;28;20099;-45
2023/05/20 12:10:33;;;;;;;0.50;0.50;;;22.50;58.40;;;;;;5005790;28;20032;-47
2023/05/20 12:12:59;;;;;;;1.60;0.60;;;22.30;58.40;;;;;;4992600;28;20533;-41
2023/05/20 12:15:25;;;;;;;0.57;0.40;;;22.30;60.10;;;;;;4993732;28;20111;-42
2023/05/20 12:17:52;;;;;;;1.38;0.60;;;22.60;61.50;;;;;;5005452;28;20399;-43
2023/05/20 12:20:22;;;;;;;1.73;0.57;;;22.80;60.80;;;;;;4999652;28;20597;-43
2023/05/20 12:22:48;;;;;;;0.65;0.40;;;22.70;60.10;;;;;;4998510;28;20038;-41
2023/05/20 12:25:19;;;;;;;0.38;0.38;;;22.70;60.30;;;;;;4993605;28;20053;-44
2023/05/20 12:27:49;;;;;;;2.45;0.63;;;22.60;59.00;;;;;;4996031;28;20042;-44
2023/05/20 12:30:17;;;;;;;0.88;0.50;;;22.80;60.00;;;;;;4991358;28;20458;-52
2023/05/20 12:32:44;;;;;;;3.15;0.80;;;23.00;60.60;;;;;;4991972;28;20066;-44
2023/05/20 12:35:10;;;;;;;0.43;0.35;;;23.00;57.90;;;;;;4991750;28;20486;-50
2023/05/20 12:37:37;;;;;;;1.60;0.70;;;23.30;58.60;;;;;;4991923;28;20066;-43
2023/05/20 12:40:07;;;;;;;0.95;0.50;;;23.00;55.40;;;;;;4991265;28;20022;-48
2023/05/20 12:42:34;;;;;;;1.17;0.68;;;22.60;56.00;;;;;;4991420;28;20058;-46
2023/05/20 12:45:00;;;;;;;0.82;0.50;;;22.70;59.40;;;;;;4990617;28;20113;-48
2023/05/20 12:47:25;;;;;;;1.02;0.50;;;22.70;58.20;;;;;;4991237;28;20105;-43
2023/05/20 12:49:51;;;;;;;0.90;0.40;;;22.60;59.10;;;;;;4991481;28;20105;-43